Limerick, New York
Current Conditions -  °F | °C
As of 9:56 AM on Friday 28 Nov 2014 (Local Time) from KART Reporting Station
Light Snow Light Snow  
Wind Chill: 16°   Ceiling: 3200
Heat Index: 27°   Visibility: 5mi
Dew Point: 17°   Wind: 13mph
Humidity: 66%   Direction: 310°NW
Pressure: 30.18"   Gusts: NA
Location:  44.03°N, 76.04°W
Report Text: KART 281456Z AUTO 31011KT 5SM -SN BKN032 OVC050 M03/M08 A3018 RMK AO2 SLP227 P0000 60000 T10281083 51010
Loading
Personal Weather Stations






























Interactive Weather Map New forecast layout! Learn more

10-Day Weather Forecast

Advertisements
Track Severe Weather on mobile